createdAt,value
2016-07-30T00:00:17.051Z,57.00
2016-07-30T00:01:28.193Z,57.00
2016-07-30T00:02:25.666Z,57.00
2016-07-30T00:03:26.887Z,57.00
2016-07-30T00:04:26.995Z,57.00
2016-07-30T00:05:22.647Z,57.00
2016-07-30T00:06:23.548Z,57.00
2016-07-30T00:07:15.060Z,57.10
2016-07-30T00:08:27.228Z,57.10
2016-07-30T00:09:23.136Z,57.20
2016-07-30T00:10:27.290Z,57.30
2016-07-30T00:11:21.337Z,57.30
2016-07-30T00:12:26.009Z,57.20
2016-07-30T00:13:21.391Z,57.20
2016-07-30T00:14:20.327Z,57.20
2016-07-30T00:15:25.540Z,57.20
2016-07-30T00:16:27.511Z,57.40
2016-07-30T00:17:22.456Z,57.50
2016-07-30T00:18:14.476Z,57.50
2016-07-30T00:19:22.252Z,57.50
2016-07-30T00:20:27.310Z,57.50
2016-07-30T00:21:24.129Z,57.70
2016-07-30T00:22:26.727Z,57.80
2016-07-30T00:23:20.633Z,57.60
2016-07-30T00:24:25.436Z,57.60
2016-07-30T00:25:27.307Z,57.50
2016-07-30T00:26:26.051Z,57.50
2016-07-30T00:27:26.060Z,57.50
2016-07-30T00:28:22.359Z,57.40
2016-07-30T00:29:12.677Z,57.50
2016-07-30T00:30:17.547Z,57.50
2016-07-30T00:31:27.354Z,57.40
2016-07-30T00:32:26.761Z,57.40
2016-07-30T00:33:21.632Z,57.50
2016-07-30T00:34:23.827Z,57.50
2016-07-30T00:35:31.838Z,57.60
2016-07-30T00:36:23.056Z,57.60
2016-07-30T00:37:16.919Z,57.50
2016-07-30T00:38:14.168Z,57.50
2016-07-30T00:39:22.128Z,57.40
2016-07-30T00:40:26.103Z,57.40
2016-07-30T00:41:12.565Z,57.50
2016-07-30T00:42:25.865Z,57.50
2016-07-30T00:43:20.915Z,57.60
2016-07-30T00:44:20.366Z,57.80
2016-07-30T00:45:26.989Z,57.80
2016-07-30T00:46:26.116Z,57.90
2016-07-30T00:47:24.480Z,58.00
2016-07-30T00:48:27.464Z,58.00
2016-07-30T00:49:27.852Z,58.00
2016-07-30T00:50:19.283Z,58.00
2016-07-30T00:51:15.904Z,58.00
2016-07-30T00:52:26.515Z,58.10
2016-07-30T00:53:26.354Z,58.00
2016-07-30T00:54:20.647Z,58.00
2016-07-30T00:55:21.070Z,58.00
2016-07-30T00:56:21.473Z,58.00
2016-07-30T00:57:26.729Z,58.00
2016-07-30T00:58:26.463Z,58.00
2016-07-30T00:59:21.206Z,58.00
2016-07-30T01:00:22.704Z,58.10
2016-07-30T01:01:26.102Z,58.00
2016-07-30T01:02:27.420Z,58.10
2016-07-30T01:03:28.353Z,58.20
2016-07-30T01:04:20.998Z,58.20
2016-07-30T01:05:25.876Z,58.30
2016-07-30T01:06:25.255Z,58.20
2016-07-30T01:07:26.270Z,58.10
2016-07-30T01:08:13.385Z,58.30
2016-07-30T01:09:20.597Z,58.20
2016-07-30T01:10:23.894Z,58.10
2016-07-30T01:11:28.454Z,58.40
2016-07-30T01:12:13.418Z,58.40
2016-07-30T01:13:26.339Z,58.40
2016-07-30T01:14:16.589Z,is
2016-07-30T01:15:18.723Z,58.50
2016-07-30T01:16:21.085Z,58.50
2016-07-30T01:17:21.065Z,is
2016-07-30T01:18:28.083Z,58.40
2016-07-30T01:19:28.099Z,58.50
2016-07-30T01:20:21.768Z,58.30
2016-07-30T01:21:15.360Z,58.30
2016-07-30T01:22:26.996Z,58.50
2016-07-30T01:23:21.798Z,is
2016-07-30T01:24:14.686Z,58.40
2016-07-30T01:25:12.368Z,is
2016-07-30T01:26:25.184Z,58.40
2016-07-30T01:27:19.731Z,58.40
2016-07-30T01:28:20.727Z,is
2016-07-30T01:29:15.627Z,is
2016-07-30T01:30:26.454Z,58.40
2016-07-30T01:31:23.471Z,58.30
2016-07-30T01:32:27.597Z,59.00
2016-07-30T01:33:23.012Z,58.40
2016-07-30T01:34:15.610Z,58.40
2016-07-30T01:35:13.040Z,is
2016-07-30T01:36:17.249Z,58.30
2016-07-30T01:37:29.857Z,58.40
2016-07-30T01:38:22.706Z,58.30
2016-07-30T01:39:16.635Z,58.30
2016-07-30T01:40:25.644Z,58.30
2016-07-30T01:41:26.136Z,58.30
2016-07-30T01:42:17.357Z,is
2016-07-30T01:43:26.198Z,58.30
2016-07-30T01:44:17.086Z,58.40
2016-07-30T01:45:25.518Z,58.40
2016-07-30T01:46:23.514Z,58.40
2016-07-30T01:47:22.516Z,58.40
2016-07-30T01:48:27.747Z,58.30
2016-07-30T01:49:19.263Z,58.40
2016-07-30T01:50:25.678Z,58.30
2016-07-30T01:51:26.193Z,58.40
2016-07-30T01:53:27.395Z,58.40
2016-07-30T01:54:26.217Z,58.30
2016-07-30T01:55:25.795Z,58.30
2016-07-30T01:56:15.994Z,58.40
2016-07-30T01:57:14.413Z,58.20
2016-07-30T01:58:26.756Z,58.20
2016-07-30T01:59:27.137Z,58.30
2016-07-30T02:00:20.624Z,58.30
2016-07-30T02:01:25.761Z,58.20
2016-07-30T02:02:13.079Z,is
2016-07-30T02:03:21.424Z,58.20
2016-07-30T02:04:14.987Z,58.20
2016-07-30T02:05:13.526Z,58.20
2016-07-30T02:06:21.039Z,58.50
2016-07-30T02:08:20.150Z,58.20
2016-07-30T02:09:22.994Z,is
2016-07-30T02:10:27.216Z,58.20
2016-07-30T02:11:20.313Z,58.30
2016-07-30T02:12:26.025Z,58.20
2016-07-30T02:13:22.098Z,58.30
2016-07-30T02:14:26.784Z,58.30
2016-07-30T02:15:25.289Z,58.20
2016-07-30T02:16:20.211Z,58.30
2016-07-30T02:17:27.238Z,58.20
2016-07-30T02:18:26.346Z,58.40
2016-07-30T02:19:17.947Z,58.50
2016-07-30T02:20:14.836Z,58.50
2016-07-30T02:21:16.548Z,58.60
2016-07-30T02:23:22.731Z,58.50
2016-07-30T02:24:26.586Z,58.60
2016-07-30T02:25:24.963Z,58.80
2016-07-30T02:26:15.495Z,58.60
2016-07-30T02:27:17.840Z,58.60
2016-07-30T02:28:26.199Z,58.70
2016-07-30T02:29:28.374Z,58.80
2016-07-30T02:30:23.315Z,58.90
2016-07-30T02:31:26.267Z,59.00
2016-07-30T02:32:26.314Z,59.00
2016-07-30T02:33:20.328Z,is
2016-07-30T02:34:24.647Z,58.80
2016-07-30T02:35:21.674Z,58.90
2016-07-30T02:36:26.211Z,58.80
2016-07-30T02:38:27.564Z,59.00
2016-07-30T02:39:16.280Z,58.80
2016-07-30T02:40:14.534Z,58.90
2016-07-30T02:41:27.786Z,58.90
2016-07-30T02:42:22.903Z,58.80
2016-07-30T02:43:20.974Z,59.00
2016-07-30T02:44:26.069Z,58.90
2016-07-30T02:45:20.884Z,58.90
2016-07-30T02:46:21.557Z,59.00
2016-07-30T02:47:17.508Z,59.00
2016-07-30T02:48:21.610Z,59.20
2016-07-30T02:49:28.006Z,59.10
2016-07-30T02:50:21.928Z,59.20
2016-07-30T02:51:22.274Z,59.20
2016-07-30T02:52:26.261Z,59.30
2016-07-30T02:53:21.903Z,59.30
2016-07-30T02:54:26.292Z,59.30
2016-07-30T02:55:25.656Z,59.20
2016-07-30T02:56:19.361Z,59.20
2016-07-30T02:57:22.158Z,59.30
2016-07-30T02:58:24.112Z,59.30
2016-07-30T02:59:22.151Z,59.40
2016-07-30T03:00:22.461Z,59.40
2016-07-30T03:01:20.687Z,59.50
2016-07-30T03:02:22.038Z,59.50
2016-07-30T03:03:23.135Z,59.60
2016-07-30T03:04:26.343Z,59.50
2016-07-30T03:05:26.315Z,59.50
2016-07-30T03:06:20.102Z,59.50
2016-07-30T03:07:26.567Z,59.50
2016-07-30T03:08:21.237Z,59.50
2016-07-30T03:09:30.606Z,59.90
2016-07-30T03:10:23.041Z,59.70
2016-07-30T03:11:22.409Z,59.80
2016-07-30T03:12:21.787Z,59.60
2016-07-30T03:13:27.156Z,59.60
2016-07-30T03:14:22.344Z,59.60
2016-07-30T03:15:20.502Z,59.70
2016-07-30T03:16:26.567Z,59.60
2016-07-30T03:17:13.077Z,is
2016-07-30T03:18:14.611Z,59.60
2016-07-30T03:19:25.183Z,59.80
2016-07-30T03:20:16.094Z,is
2016-07-30T03:21:17.907Z,is
2016-07-30T03:22:22.169Z,59.80
2016-07-30T03:23:25.376Z,59.60
2016-07-30T03:24:22.784Z,59.70
2016-07-30T03:25:27.724Z,59.60
2016-07-30T03:26:18.993Z,59.50
2016-07-30T03:27:21.849Z,59.60
2016-07-30T03:28:26.583Z,59.60
2016-07-30T03:29:25.763Z,59.60
2016-07-30T03:30:21.594Z,59.60
2016-07-30T03:31:24.036Z,59.70
2016-07-30T03:32:17.955Z,59.70
2016-07-30T03:33:20.590Z,59.70
2016-07-30T03:34:22.596Z,59.70
2016-07-30T03:35:23.703Z,59.80
2016-07-30T03:36:22.336Z,59.80
2016-07-30T03:37:28.371Z,59.80
2016-07-30T03:38:19.406Z,59.80
2016-07-30T03:39:21.216Z,59.80
2016-07-30T03:40:23.349Z,59.80
2016-07-30T03:41:20.259Z,59.90
2016-07-30T03:42:21.235Z,59.90
2016-07-30T03:43:30.260Z,59.90
2016-07-30T03:44:28.049Z,60.00
2016-07-30T03:45:19.202Z,60.00
2016-07-30T03:46:23.423Z,59.90
2016-07-30T03:47:22.685Z,is
2016-07-30T03:48:21.360Z,60.00
2016-07-30T03:49:22.859Z,60.10
2016-07-30T03:50:26.615Z,60.10
2016-07-30T03:51:18.424Z,60.10
2016-07-30T03:52:26.495Z,60.00
2016-07-30T03:53:28.295Z,60.00
2016-07-30T03:54:16.723Z,60.10
2016-07-30T03:55:20.222Z,60.10
2016-07-30T03:56:14.187Z,is
2016-07-30T03:57:26.540Z,60.00
2016-07-30T03:58:27.395Z,60.10
2016-07-30T03:59:20.985Z,60.10
2016-07-30T04:00:25.243Z,60.10
2016-07-30T04:01:26.121Z,60.30
2016-07-30T04:02:20.321Z,60.30
2016-07-30T04:03:21.550Z,is
2016-07-30T04:04:23.389Z,60.30
2016-07-30T04:05:17.348Z,60.40
2016-07-30T04:06:24.035Z,60.30
2016-07-30T04:07:23.500Z,60.40
2016-07-30T04:08:26.423Z,60.50
2016-07-30T04:09:20.602Z,60.50
2016-07-30T04:10:25.967Z,60.70
2016-07-30T04:11:26.207Z,60.70
2016-07-30T04:12:20.627Z,60.80
2016-07-30T04:13:20.021Z,60.70
2016-07-30T04:14:27.390Z,60.70
2016-07-30T04:15:26.178Z,60.70
2016-07-30T04:16:21.671Z,60.60
2016-07-30T04:17:27.647Z,60.60
2016-07-30T04:18:20.116Z,60.70
2016-07-30T04:19:21.985Z,60.60
2016-07-30T04:20:47.069Z,60.70
2016-07-30T04:21:27.610Z,60.60
2016-07-30T04:22:19.344Z,60.60
2016-07-30T04:23:27.205Z,60.50
2016-07-30T04:24:25.759Z,60.50
2016-07-30T04:25:25.188Z,60.60
2016-07-30T04:26:11.548Z,is
2016-07-30T04:27:17.909Z,60.80
2016-07-30T04:28:23.028Z,60.60
2016-07-30T04:29:22.416Z,60.60
2016-07-30T04:30:28.276Z,60.60
2016-07-30T04:31:21.483Z,60.70
2016-07-30T04:32:17.494Z,60.70
2016-07-30T04:33:21.736Z,60.70
2016-07-30T04:34:26.617Z,60.70
2016-07-30T04:35:14.091Z,60.90
2016-07-30T04:36:27.144Z,60.90
2016-07-30T04:37:22.688Z,60.90
2016-07-30T04:38:22.537Z,61.00
2016-07-30T04:39:25.698Z,61.00
2016-07-30T04:40:27.679Z,is
2016-07-30T04:41:22.985Z,61.00
2016-07-30T04:42:26.385Z,is
2016-07-30T04:43:27.578Z,60.90
2016-07-30T04:44:27.458Z,60.90
2016-07-30T04:45:19.953Z,61.00
2016-07-30T04:46:26.903Z,60.90
2016-07-30T04:47:22.045Z,60.90
2016-07-30T04:48:26.706Z,60.70
2016-07-30T04:49:21.918Z,60.60
2016-07-30T04:50:23.450Z,60.60
2016-07-30T04:51:25.653Z,60.70
2016-07-30T04:52:26.717Z,60.80
2016-07-30T04:53:21.750Z,60.90
2016-07-30T04:54:21.721Z,is
2016-07-30T04:55:25.033Z,60.50
2016-07-30T04:56:25.777Z,60.40
2016-07-30T04:57:21.584Z,60.50
2016-07-30T04:58:27.365Z,60.50
2016-07-30T04:59:26.425Z,60.50
2016-07-30T05:00:27.586Z,60.40
2016-07-30T05:01:29.388Z,60.50
2016-07-30T05:02:22.787Z,60.50
2016-07-30T05:03:15.409Z,is
2016-07-30T05:04:23.402Z,60.60
2016-07-30T05:05:21.337Z,60.50
2016-07-30T05:06:27.138Z,60.60
2016-07-30T05:07:22.388Z,61.20
2016-07-30T05:08:27.890Z,60.80
2016-07-30T05:09:27.748Z,60.70
2016-07-30T05:10:26.633Z,60.70
2016-07-30T05:11:22.156Z,60.70
2016-07-30T05:12:21.472Z,60.60
2016-07-30T05:13:23.927Z,60.70
2016-07-30T05:14:26.189Z,60.80
2016-07-30T05:15:26.418Z,60.80
2016-07-30T05:16:20.379Z,60.50
2016-07-30T05:17:25.628Z,60.50
2016-07-30T05:18:31.799Z,60.50
2016-07-30T05:19:26.025Z,60.70
2016-07-30T05:20:16.718Z,60.60
2016-07-30T05:21:22.612Z,60.70
2016-07-30T05:22:23.477Z,60.80
2016-07-30T05:24:13.148Z,60.80
2016-07-30T05:25:27.445Z,60.70
2016-07-30T05:26:21.786Z,is
2016-07-30T05:27:21.914Z,60.90
2016-07-30T05:28:22.029Z,60.90
2016-07-30T05:29:26.763Z,61.20
2016-07-30T05:30:26.466Z,61.30
2016-07-30T05:31:26.529Z,61.00
2016-07-30T05:32:24.194Z,60.90
2016-07-30T05:33:21.695Z,60.80
2016-07-30T05:34:22.339Z,is
2016-07-30T05:35:23.152Z,60.60
2016-07-30T05:36:19.491Z,60.70
2016-07-30T05:37:21.170Z,is
2016-07-30T05:38:26.537Z,60.80
2016-07-30T05:39:16.337Z,60.60
2016-07-30T05:40:21.679Z,60.50
2016-07-30T05:41:23.295Z,60.40
2016-07-30T05:42:26.483Z,60.50
2016-07-30T05:43:22.077Z,60.60
2016-07-30T05:44:27.367Z,60.50
2016-07-30T05:45:20.359Z,60.40
2016-07-30T05:46:15.330Z,60.40
2016-07-30T05:47:26.781Z,60.50
2016-07-30T05:48:19.442Z,is
2016-07-30T05:49:25.449Z,60.50
2016-07-30T05:50:26.627Z,61.20
2016-07-30T05:51:22.211Z,60.50
2016-07-30T05:52:20.912Z,is
2016-07-30T05:54:23.929Z,60.40
2016-07-30T05:55:14.834Z,60.20
2016-07-30T05:56:27.599Z,60.30
2016-07-30T05:57:22.227Z,60.30
2016-07-30T05:58:12.958Z,is
2016-07-30T05:59:21.368Z,60.30
2016-07-30T06:00:23.527Z,60.40
2016-07-30T06:01:25.567Z,60.50
2016-07-30T06:02:15.046Z,60.30
2016-07-30T06:03:16.127Z,60.30
2016-07-30T06:04:25.985Z,60.20
2016-07-30T06:05:21.437Z,60.00
2016-07-30T06:06:24.164Z,60.00
2016-07-30T06:07:14.314Z,60.00
2016-07-30T06:09:15.734Z,60.00
2016-07-30T06:10:21.898Z,60.00
2016-07-30T06:11:22.888Z,59.90
2016-07-30T06:12:17.440Z,59.90
2016-07-30T06:13:27.564Z,59.70
2016-07-30T06:14:21.734Z,59.70
2016-07-30T06:15:25.179Z,59.70
2016-07-30T06:16:16.758Z,60.00
2016-07-30T06:17:25.765Z,59.90
2016-07-30T06:18:15.086Z,59.70
2016-07-30T06:19:26.014Z,59.50
2016-07-30T06:20:29.019Z,59.50
2016-07-30T06:21:12.393Z,59.60
2016-07-30T06:22:29.752Z,59.70
2016-07-30T06:23:10.976Z,is
2016-07-30T06:24:26.686Z,59.60
2016-07-30T06:25:12.870Z,59.50
2016-07-30T06:26:26.839Z,59.70
2016-07-30T06:27:15.525Z,59.60
2016-07-30T06:28:23.564Z,59.70
2016-07-30T06:29:27.135Z,59.70
2016-07-30T06:30:20.134Z,59.90
2016-07-30T06:31:27.623Z,59.70
2016-07-30T06:32:12.325Z,59.40
2016-07-30T06:33:25.085Z,59.40
2016-07-30T06:34:26.973Z,59.30
2016-07-30T06:35:28.207Z,59.60
2016-07-30T06:36:26.849Z,59.40
2016-07-30T06:37:26.624Z,59.30
2016-07-30T06:38:12.551Z,59.20
2016-07-30T06:39:26.548Z,58.90
2016-07-30T06:40:22.351Z,58.90
2016-07-30T06:41:24.704Z,59.40
2016-07-30T06:42:28.355Z,59.40
2016-07-30T06:43:21.775Z,59.50
2016-07-30T06:44:25.604Z,59.50
2016-07-30T06:45:22.766Z,59.10
2016-07-30T06:46:28.398Z,58.50
2016-07-30T06:47:28.166Z,59.10
2016-07-30T06:48:28.511Z,59.10
2016-07-30T06:49:26.839Z,59.00
2016-07-30T06:50:27.365Z,58.90
2016-07-30T06:51:23.856Z,58.90
2016-07-30T06:52:12.354Z,58.90
2016-07-30T06:53:14.547Z,59.00
2016-07-30T06:54:28.418Z,59.10
2016-07-30T06:55:15.883Z,59.00
2016-07-30T06:56:11.842Z,is
2016-07-30T06:57:23.724Z,59.20
2016-07-30T06:58:13.622Z,59.20
2016-07-30T06:59:25.114Z,58.90
2016-07-30T07:00:27.682Z,59.00
2016-07-30T07:01:13.228Z,59.10
2016-07-30T07:02:24.075Z,59.00
2016-07-30T07:03:22.871Z,59.00
2016-07-30T07:04:28.133Z,59.00
2016-07-30T07:05:20.896Z,59.00
2016-07-30T07:06:19.450Z,59.30
2016-07-30T07:07:26.651Z,59.30
2016-07-30T07:08:19.370Z,59.00
2016-07-30T07:09:26.194Z,59.00
2016-07-30T07:10:20.440Z,59.00
2016-07-30T07:11:26.685Z,59.10
2016-07-30T07:12:22.167Z,59.20
2016-07-30T07:13:27.957Z,59.20
2016-07-30T07:14:16.399Z,59.10
2016-07-30T07:15:12.716Z,59.20
2016-07-30T07:16:22.046Z,59.30
2016-07-30T07:17:26.822Z,59.20
2016-07-30T07:18:26.610Z,59.30
2016-07-30T07:19:22.947Z,59.20
2016-07-30T07:20:12.720Z,59.10
2016-07-30T07:21:23.064Z,59.20
2016-07-30T07:22:25.740Z,59.20
2016-07-30T07:23:12.394Z,59.20
2016-07-30T07:24:28.501Z,59.20
2016-07-30T07:25:16.155Z,59.20
2016-07-30T07:26:26.383Z,59.20
2016-07-30T07:27:22.816Z,59.20
2016-07-30T07:28:20.299Z,is
2016-07-30T07:29:26.067Z,59.20
2016-07-30T07:30:13.567Z,59.20
2016-07-30T07:31:12.301Z,59.20
2016-07-30T07:32:27.714Z,59.30
2016-07-30T07:33:22.838Z,59.20
2016-07-30T07:34:27.486Z,59.20
2016-07-30T07:35:16.733Z,59.30
2016-07-30T07:36:18.973Z,59.10
2016-07-30T07:37:28.409Z,58.30
2016-07-30T07:38:28.057Z,58.10
2016-07-30T07:39:26.524Z,58.10
2016-07-30T07:40:21.149Z,58.20
2016-07-30T07:41:26.612Z,57.80
2016-07-30T07:42:22.206Z,57.70
2016-07-30T07:43:26.760Z,57.40
2016-07-30T07:44:25.988Z,57.10
2016-07-30T07:45:26.913Z,57.40
2016-07-30T07:46:18.109Z,57.20
2016-07-30T07:47:23.241Z,57.20
2016-07-30T07:48:11.821Z,is
2016-07-30T07:49:28.430Z,57.30
2016-07-30T07:50:26.542Z,57.30
2016-07-30T07:51:22.937Z,is
2016-07-30T07:52:09.181Z,is
2016-07-30T07:53:16.257Z,57.80
2016-07-30T07:54:27.138Z,57.70
2016-07-30T07:55:21.701Z,57.90
2016-07-30T07:56:13.942Z,57.70
2016-07-30T07:57:28.867Z,57.70
2016-07-30T07:58:14.255Z,57.80
2016-07-30T07:59:14.609Z,57.60
2016-07-30T08:00:26.359Z,57.50
2016-07-30T08:01:27.070Z,57.60
2016-07-30T08:02:25.571Z,57.30
2016-07-30T08:03:22.944Z,57.40
2016-07-30T08:04:26.672Z,57.40
2016-07-30T08:05:22.227Z,57.50
2016-07-30T08:06:13.442Z,57.40
2016-07-30T08:07:22.428Z,57.50
2016-07-30T08:08:25.757Z,57.30
2016-07-30T08:09:19.961Z,57.30
2016-07-30T08:10:27.560Z,57.30
2016-07-30T08:11:27.797Z,57.40
2016-07-30T08:12:14.764Z,57.50
2016-07-30T08:13:11.927Z,57.50
2016-07-30T08:14:28.140Z,57.40
2016-07-30T08:15:19.560Z,57.40
2016-07-30T08:16:28.676Z,57.20
2016-07-30T08:17:21.607Z,57.30
2016-07-30T08:18:23.392Z,57.20
2016-07-30T08:19:14.738Z,57.40
2016-07-30T08:20:25.614Z,57.50
2016-07-30T08:21:20.132Z,57.60
2016-07-30T08:22:22.021Z,57.60
2016-07-30T08:23:26.667Z,57.60
2016-07-30T08:24:21.134Z,57.60
2016-07-30T08:25:23.225Z,57.70
2016-07-30T08:26:24.752Z,57.70
2016-07-30T08:27:33.901Z,57.70
2016-07-30T08:28:23.948Z,57.70
2016-07-30T08:29:22.321Z,57.90
2016-07-30T08:30:23.110Z,58.00
2016-07-30T08:31:27.860Z,57.90
2016-07-30T08:32:12.967Z,58.00
2016-07-30T08:33:26.368Z,58.00
2016-07-30T08:34:25.802Z,58.00
2016-07-30T08:35:21.803Z,58.00
2016-07-30T08:36:22.830Z,58.00
2016-07-30T08:37:12.170Z,58.00
2016-07-30T08:38:27.749Z,58.20
2016-07-30T08:39:26.999Z,58.10
2016-07-30T08:40:27.025Z,is
2016-07-30T08:41:11.249Z,is
2016-07-30T08:42:14.102Z,58.10
2016-07-30T08:43:25.882Z,58.10
2016-07-30T08:44:21.830Z,58.20
2016-07-30T08:45:25.880Z,58.00
2016-07-30T08:46:21.518Z,58.00
2016-07-30T08:47:27.179Z,58.00
2016-07-30T08:48:10.367Z,is
2016-07-30T08:49:14.077Z,is
2016-07-30T08:50:14.541Z,58.20
2016-07-30T08:51:25.557Z,58.10
2016-07-30T08:52:12.774Z,58.00
2016-07-30T08:53:12.725Z,58.10
2016-07-30T08:54:21.363Z,57.80
2016-07-30T08:55:12.679Z,58.20
2016-07-30T08:56:22.103Z,58.20
2016-07-30T08:57:27.168Z,58.20
2016-07-30T08:58:12.366Z,58.30
2016-07-30T08:59:28.915Z,58.40
2016-07-30T09:00:19.367Z,58.30
2016-07-30T09:01:18.647Z,58.30
2016-07-30T09:02:22.121Z,58.30
2016-07-30T09:03:15.361Z,58.40
2016-07-30T09:04:27.898Z,is
2016-07-30T09:05:20.240Z,58.50
2016-07-30T09:06:20.941Z,58.50
2016-07-30T09:07:28.125Z,58.50
2016-07-30T09:08:12.623Z,58.60
2016-07-30T09:09:20.838Z,58.60
2016-07-30T09:10:15.044Z,58.50
2016-07-30T09:11:23.976Z,58.50
2016-07-30T09:12:27.908Z,58.50
2016-07-30T09:13:16.942Z,58.40
2016-07-30T09:14:17.708Z,58.40
2016-07-30T09:15:20.922Z,58.60
2016-07-30T09:16:20.516Z,58.50
2016-07-30T09:17:21.682Z,is
2016-07-30T09:18:12.626Z,58.40
2016-07-30T09:19:15.170Z,58.40
2016-07-30T09:20:12.288Z,58.30
2016-07-30T09:21:12.092Z,58.40
2016-07-30T09:22:13.938Z,58.30
2016-07-30T09:23:14.068Z,58.30
2016-07-30T09:25:14.181Z,58.40
2016-07-30T09:26:10.935Z,is
2016-07-30T09:27:12.834Z,58.50
2016-07-30T09:28:12.179Z,58.40
2016-07-30T09:29:13.051Z,58.60
2016-07-30T09:30:14.845Z,58.60
2016-07-30T09:31:12.171Z,58.60
2016-07-30T09:32:13.584Z,58.70
2016-07-30T09:33:11.950Z,58.60
2016-07-30T09:34:10.016Z,is
2016-07-30T09:35:16.936Z,58.60
2016-07-30T09:36:15.014Z,is
2016-07-30T09:37:12.197Z,59.00
2016-07-30T09:38:12.224Z,58.70
2016-07-30T09:40:13.699Z,58.70
2016-07-30T09:41:15.868Z,58.80
2016-07-30T09:42:11.898Z,58.70
2016-07-30T09:43:20.915Z,58.70
2016-07-30T09:44:27.659Z,58.70
2016-07-30T09:45:22.950Z,59.00
2016-07-30T09:46:18.234Z,59.00
2016-07-30T09:47:20.103Z,59.00
2016-07-30T09:48:23.633Z,58.80
2016-07-30T09:49:12.853Z,58.90
2016-07-30T09:50:22.501Z,58.90
2016-07-30T09:51:11.529Z,is
2016-07-30T09:52:23.573Z,59.10
2016-07-30T09:53:27.201Z,59.00
2016-07-30T09:55:22.247Z,59.00
2016-07-30T09:56:12.400Z,is
2016-07-30T09:57:12.114Z,58.90
2016-07-30T09:58:12.490Z,58.90
2016-07-30T09:59:12.612Z,59.10
2016-07-30T10:00:20.108Z,is
2016-07-30T10:01:16.216Z,59.10
2016-07-30T10:02:23.889Z,58.90
2016-07-30T10:03:17.211Z,58.90
2016-07-30T10:04:20.121Z,58.90
2016-07-30T10:05:18.977Z,58.70
2016-07-30T10:06:11.085Z,is
2016-07-30T10:07:12.576Z,58.70
2016-07-30T10:08:27.883Z,58.80
2016-07-30T10:10:12.479Z,is
2016-07-30T10:11:19.312Z,58.70
2016-07-30T10:12:17.073Z,58.70
2016-07-30T10:13:28.303Z,58.90
2016-07-30T10:14:18.627Z,58.80
2016-07-30T10:15:22.551Z,58.70
2016-07-30T10:16:11.165Z,is
2016-07-30T10:17:23.194Z,58.60
2016-07-30T10:18:16.353Z,58.80
2016-07-30T10:19:14.007Z,58.70
2016-07-30T10:20:15.050Z,is
2016-07-30T10:21:24.110Z,58.60
2016-07-30T10:22:21.081Z,58.50
2016-07-30T10:23:11.680Z,58.70
2016-07-30T10:24:13.210Z,58.60
2016-07-30T10:25:16.379Z,58.40
2016-07-30T10:26:27.290Z,58.40
2016-07-30T10:27:27.012Z,58.40
2016-07-30T10:28:12.259Z,58.20
2016-07-30T10:29:23.914Z,58.20
2016-07-30T10:30:27.160Z,58.40
2016-07-30T10:31:14.144Z,58.30
2016-07-30T10:32:14.640Z,58.40
2016-07-30T10:33:22.963Z,58.40
2016-07-30T10:34:12.453Z,is
2016-07-30T10:35:17.978Z,58.20
2016-07-30T10:36:27.413Z,58.50
2016-07-30T10:37:14.850Z,58.20
2016-07-30T10:38:13.751Z,58.50
2016-07-30T10:39:13.050Z,is
2016-07-30T10:40:23.378Z,58.30
2016-07-30T10:41:23.071Z,58.40
2016-07-30T10:42:16.566Z,58.40
2016-07-30T10:43:19.789Z,58.40
2016-07-30T10:44:15.960Z,58.30
2016-07-30T10:45:14.975Z,58.40
2016-07-30T10:46:14.886Z,58.40
2016-07-30T10:47:11.984Z,58.40
2016-07-30T10:48:25.140Z,58.30
2016-07-30T10:49:22.169Z,58.50
2016-07-30T10:50:22.026Z,58.40
2016-07-30T10:51:21.557Z,58.50
2016-07-30T10:52:20.827Z,58.40
2016-07-30T10:53:14.246Z,58.30
2016-07-30T10:54:14.213Z,58.20
2016-07-30T10:55:13.319Z,58.20
2016-07-30T10:56:21.519Z,58.30
2016-07-30T10:57:27.289Z,58.30
2016-07-30T10:58:22.343Z,is
2016-07-30T10:59:22.373Z,58.20
2016-07-30T11:00:26.025Z,58.20
2016-07-30T11:01:13.474Z,58.30
2016-07-30T11:02:13.570Z,58.30
2016-07-30T11:03:27.091Z,58.10
2016-07-30T11:04:13.104Z,58.30
2016-07-30T11:05:11.994Z,58.30
2016-07-30T11:06:19.943Z,58.30
2016-07-30T11:07:27.370Z,58.30
2016-07-30T11:08:17.095Z,58.30
2016-07-30T11:09:15.553Z,58.20
2016-07-30T11:10:26.810Z,58.20
2016-07-30T11:11:27.032Z,58.40
2016-07-30T11:12:13.106Z,58.30
2016-07-30T11:13:17.314Z,58.30
2016-07-30T11:14:17.575Z,58.30
2016-07-30T11:15:27.979Z,58.60
2016-07-30T11:16:21.585Z,is
2016-07-30T11:17:17.074Z,58.50
2016-07-30T11:18:21.600Z,58.70
2016-07-30T11:19:23.082Z,58.30
2016-07-30T11:20:13.226Z,58.60
2016-07-30T11:21:17.195Z,58.50
2016-07-30T11:22:22.050Z,58.30
2016-07-30T11:23:12.192Z,58.50
2016-07-30T11:24:14.216Z,58.60
2016-07-30T11:25:24.238Z,58.60
2016-07-30T11:26:18.017Z,58.60
2016-07-30T11:27:20.222Z,58.70
2016-07-30T11:28:14.606Z,58.50
2016-07-30T11:29:12.934Z,58.60
2016-07-30T11:30:27.926Z,59.20
2016-07-30T11:31:16.873Z,58.60
2016-07-30T11:32:12.516Z,58.60
2016-07-30T11:33:21.808Z,58.70
2016-07-30T11:34:26.966Z,58.60
2016-07-30T11:35:09.985Z,is
2016-07-30T11:36:12.120Z,58.50
2016-07-30T11:37:26.904Z,58.50
2016-07-30T11:38:18.646Z,58.30
2016-07-30T11:39:21.379Z,58.30
2016-07-30T11:40:12.095Z,58.40
2016-07-30T11:41:13.781Z,58.40
2016-07-30T11:42:16.845Z,58.50
2016-07-30T11:43:22.950Z,58.50
2016-07-30T11:44:13.736Z,58.50
2016-07-30T11:45:14.617Z,58.60
2016-07-30T11:46:22.528Z,58.50
2016-07-30T11:47:21.835Z,is
2016-07-30T11:48:18.715Z,58.40
2016-07-30T11:49:28.485Z,58.50
2016-07-30T11:50:27.179Z,58.40
2016-07-30T11:51:14.852Z,58.30
2016-07-30T11:52:22.128Z,58.40
2016-07-30T11:53:21.974Z,58.30
2016-07-30T11:54:12.770Z,58.30
2016-07-30T11:55:13.456Z,is
2016-07-30T11:56:15.838Z,58.20
2016-07-30T11:57:12.374Z,58.20
2016-07-30T11:58:15.907Z,is
2016-07-30T11:59:19.597Z,is
2016-07-30T12:00:21.035Z,58.20
2016-07-30T12:01:22.465Z,58.10
2016-07-30T12:02:26.643Z,58.00
2016-07-30T12:03:12.757Z,58.10
2016-07-30T12:04:17.624Z,58.00
2016-07-30T12:05:22.390Z,57.90
2016-07-30T12:06:15.749Z,58.00
2016-07-30T12:07:16.307Z,57.90
2016-07-30T12:08:21.906Z,57.80
2016-07-30T12:09:20.667Z,58.00
2016-07-30T12:10:20.427Z,58.00
2016-07-30T12:11:20.340Z,58.00
2016-07-30T12:12:21.658Z,57.90
2016-07-30T12:13:16.287Z,57.90
2016-07-30T12:14:21.159Z,57.90
2016-07-30T12:15:13.788Z,57.90
2016-07-30T12:16:12.204Z,57.80
2016-07-30T12:17:27.288Z,57.90
2016-07-30T12:18:23.261Z,57.80
2016-07-30T12:19:25.747Z,57.90
2016-07-30T12:20:12.942Z,57.70
2016-07-30T12:21:22.357Z,57.90
2016-07-30T12:22:21.870Z,57.70
2016-07-30T12:23:27.391Z,57.70
2016-07-30T12:24:16.639Z,57.70
2016-07-30T12:25:18.047Z,57.70
2016-07-30T12:26:17.241Z,57.70
2016-07-30T12:27:23.709Z,57.70
2016-07-30T12:28:22.413Z,57.80
2016-07-30T12:29:12.778Z,57.70
2016-07-30T12:30:16.757Z,57.70
2016-07-30T12:31:16.730Z,57.60
2016-07-30T12:32:14.752Z,57.70
2016-07-30T12:33:12.642Z,57.60
2016-07-30T12:34:11.663Z,57.60
2016-07-30T12:35:12.445Z,57.60
2016-07-30T12:36:19.802Z,57.60
2016-07-30T12:37:13.489Z,57.60
2016-07-30T12:38:16.600Z,is
2016-07-30T12:39:17.814Z,57.70
2016-07-30T12:40:21.565Z,57.60
2016-07-30T12:41:25.056Z,57.60
2016-07-30T12:42:13.158Z,is
2016-07-30T12:43:12.529Z,57.70
2016-07-30T12:44:12.787Z,57.60
2016-07-30T12:45:12.364Z,57.60
2016-07-30T12:46:12.044Z,57.50
2016-07-30T12:47:13.961Z,57.50
2016-07-30T12:48:13.728Z,57.50
2016-07-30T12:49:27.430Z,57.40
2016-07-30T12:50:12.269Z,57.50
2016-07-30T12:51:13.018Z,57.50
2016-07-30T12:52:28.115Z,57.50
2016-07-30T12:53:23.421Z,57.40
2016-07-30T12:54:18.108Z,57.40
2016-07-30T12:55:13.921Z,57.40
2016-07-30T12:56:14.769Z,57.50
2016-07-30T12:57:21.247Z,57.40
2016-07-30T12:58:27.671Z,57.40
2016-07-30T12:59:14.314Z,57.40
2016-07-30T13:00:13.724Z,57.40
2016-07-30T13:01:27.808Z,57.40
2016-07-30T13:02:22.395Z,57.40
2016-07-30T13:03:21.568Z,57.50
2016-07-30T13:04:12.377Z,57.70
2016-07-30T13:05:15.774Z,57.40
2016-07-30T13:06:26.807Z,57.60
2016-07-30T13:07:22.237Z,57.50
2016-07-30T13:08:19.017Z,57.60
2016-07-30T13:09:13.618Z,57.50